Time;durP1;ratioP1;P1;durP2;ratioP2;P2;SDS_P1;SDS_P2;PMS_P1;PMS_P2;Temp;Humidity;BMP_temperature;BMP_pressure;BME280_temperature;BME280_humidity;BME280_pressure;Samples;Min_cycle;Max_cycle;Signal;HPM_P1;HPM_P2
2021/12/11 00:02:12;;;;;;;139.18;51.47;;;;;;;;;;6229036;28;20017;-85
2021/12/11 00:05:15;;;;;;;86.18;34.55;;;;;;;;;;6224559;28;20470;-85
2021/12/11 00:08:18;;;;;;;80.18;33.67;;;;;;;;;;6220142;28;20059;-85
2021/12/11 00:11:21;;;;;;;97.53;37.00;;;;;;;;;;6221473;28;20025;-85
2021/12/11 00:14:22;;;;;;;90.80;37.35;;;;;;;;;;6224190;28;20025;-85
2021/12/11 00:17:27;;;;;;;94.75;35.42;;;;;;;;;;6219726;28;20116;-85
2021/12/11 00:20:29;;;;;;;102.72;42.03;;;;;;;;;;6230676;28;20014;-85
2021/12/11 00:23:41;;;;;;;97.20;42.13;;;;;;;;;;6225552;28;20432;-85
2021/12/11 00:26:43;;;;;;;114.13;42.25;;;;;;;;;;6223598;28;20360;-85
2021/12/11 00:29:44;;;;;;;;;;;;;;;;;;6222381;28;20025;-85
2021/12/11 00:32:44;;;;;;;73.72;29.98;;;;;;;;;;6217929;28;19910;-86
2021/12/11 00:35:44;;;;;;;91.65;36.85;;;;;;;;;;6225925;28;20105;-85
2021/12/11 00:38:48;;;;;;;76.32;34.15;;;;;;;;;;6222974;28;20088;-85
2021/12/11 00:41:53;;;;;;;95.82;40.35;;;;;;;;;;6226476;28;20018;-85
2021/12/11 00:44:54;;;;;;;161.23;68.80;;;;;;;;;;6230506;28;20006;-85
2021/12/11 00:48:00;;;;;;;112.13;48.33;;;;;;;;;;6241260;28;20018;-85
2021/12/11 00:51:03;;;;;;;107.65;43.40;;;;;;;;;;6243626;28;20651;-85
2021/12/11 00:54:03;;;;;;;96.53;40.53;;;;;;;;;;6233222;28;20359;-85
2021/12/11 00:57:04;;;;;;;101.32;40.30;;;;;;;;;;6229584;28;20072;-85
2021/12/11 01:00:07;;;;;;;88.75;39.85;;;;;;;;;;6232766;28;20042;-85
2021/12/11 01:03:07;;;;;;;88.57;37.05;;;;;;;;;;6232581;28;20033;-86
2021/12/11 01:06:28;;;;;;;70.65;31.77;;;;;;;;;;6232629;28;20385;-85
2021/12/11 01:09:40;;;;;;;74.63;31.73;;;;;;;;;;6224560;28;20033;-85
2021/12/11 01:12:48;;;;;;;;;;;;;;;;;;6224945;28;20478;-85
2021/12/11 01:15:54;;;;;;;83.32;38.05;;;;;;;;;;6223563;28;19906;-86
2021/12/11 01:18:57;;;;;;;86.38;37.97;;;;;;;;;;6229659;28;20230;-85
2021/12/11 01:21:59;;;;;;;102.38;39.85;;;;;;;;;;6226777;28;20022;-86
2021/12/11 01:25:09;;;;;;;66.45;30.15;;;;;;;;;;6241772;28;20021;-85
2021/12/11 01:28:09;;;;;;;89.68;37.63;;;;;;;;;;6230356;28;20076;-85
2021/12/11 01:31:11;;;;;;;88.50;37.80;;;;;;;;;;6225466;28;20423;-85
2021/12/11 01:34:12;;;;;;;85.72;35.47;;;;;;;;;;6227385;28;20017;-86
2021/12/11 01:37:14;;;;;;;102.75;39.85;;;;;;;;;;6222387;28;20025;-85
2021/12/11 01:40:16;;;;;;;97.82;40.25;;;;;;;;;;6227603;28;20025;-85
2021/12/11 01:43:20;;;;;;;85.88;33.97;;;;;;;;;;6229121;28;20029;-85
2021/12/11 01:46:24;;;;;;;94.88;37.28;;;;;;;;;;6225979;28;20026;-85
2021/12/11 01:49:24;;;;;;;64.47;24.98;;;;;;;;;;6226348;28;20026;-85
2021/12/11 01:52:36;;;;;;;67.13;28.73;;;;;;;;;;6228545;28;20038;-85
2021/12/11 01:55:48;;;;;;;62.38;27.48;;;;;;;;;;6238508;28;20018;-85
2021/12/11 01:58:59;;;;;;;91.13;37.92;;;;;;;;;;6223856;28;20026;-85
2021/12/11 02:02:06;;;;;;;79.40;35.05;;;;;;;;;;6235114;28;20041;-85
2021/12/11 02:05:07;;;;;;;82.38;35.30;;;;;;;;;;6224374;28;20540;-85
2021/12/11 02:08:10;;;;;;;95.55;39.03;;;;;;;;;;6227826;28;20026;-86
2021/12/11 02:11:20;;;;;;;80.90;36.58;;;;;;;;;;6241954;28;20018;-86
2021/12/11 02:14:26;;;;;;;88.53;34.58;;;;;;;;;;6237807;28;20292;-85
2021/12/11 02:17:29;;;;;;;64.70;30.85;;;;;;;;;;6239466;28;20051;-85
2021/12/11 02:20:31;;;;;;;71.93;32.63;;;;;;;;;;6223544;28;20037;-86
2021/12/11 02:23:31;;;;;;;;;;;;;;;;;;6224645;28;20029;-85
2021/12/11 02:26:34;;;;;;;74.85;28.83;;;;;;;;;;6224791;28;19914;-85
2021/12/11 02:29:36;;;;;;;74.50;31.13;;;;;;;;;;6229414;28;20060;-86
2021/12/11 02:32:39;;;;;;;89.20;35.90;;;;;;;;;;6237202;28;20014;-86
2021/12/11 02:35:40;;;;;;;89.00;37.95;;;;;;;;;;6226124;28;20022;-85
2021/12/11 02:38:40;;;;;;;91.75;37.03;;;;;;;;;;6225952;28;20021;-86
2021/12/11 02:41:49;;;;;;;66.93;27.27;;;;;;;;;;6235949;28;20072;-85
2021/12/11 02:44:55;;;;;;;80.07;30.35;;;;;;;;;;6235658;28;20014;-85
2021/12/11 02:48:10;;;;;;;88.32;36.25;;;;;;;;;;6227658;28;20310;-85
2021/12/11 02:51:30;;;;;;;82.53;35.55;;;;;;;;;;6222796;28;20057;-85
2021/12/11 02:54:34;;;;;;;90.47;35.17;;;;;;;;;;6226118;28;20055;-85
2021/12/11 02:57:40;;;;;;;87.35;37.78;;;;;;;;;;6224746;28;20018;-85
2021/12/11 03:00:43;;;;;;;88.63;35.00;;;;;;;;;;6223010;28;20110;-85
2021/12/11 03:03:46;;;;;;;65.85;26.65;;;;;;;;;;6223595;28;20018;-85
2021/12/11 03:06:48;;;;;;;68.93;31.58;;;;;;;;;;6240798;28;20109;-85
2021/12/11 03:09:51;;;;;;;92.05;34.88;;;;;;;;;;6222183;28;20014;-85
2021/12/11 03:12:54;;;;;;;72.75;30.48;;;;;;;;;;6221974;28;20437;-85
2021/12/11 03:15:54;;;;;;;71.32;29.95;;;;;;;;;;6219885;28;20471;-85
2021/12/11 03:18:55;;;;;;;77.75;32.38;;;;;;;;;;6238649;28;20014;-85
2021/12/11 03:21:56;;;;;;;87.30;36.33;;;;;;;;;;6224409;28;20048;-85
2021/12/11 03:25:00;;;;;;;110.45;37.67;;;;;;;;;;6226427;28;20018;-85
2021/12/11 03:28:01;;;;;;;65.78;29.30;;;;;;;;;;6227143;28;20449;-86
2021/12/11 03:31:03;;;;;;;72.53;28.33;;;;;;;;;;6228582;28;20006;-85
2021/12/11 03:34:06;;;;;;;84.43;37.60;;;;;;;;;;6228320;28;20010;-85
2021/12/11 03:37:07;;;;;;;64.22;25.92;;;;;;;;;;6222212;28;20466;-86
2021/12/11 03:40:08;;;;;;;80.90;35.42;;;;;;;;;;6226524;28;20564;-85
2021/12/11 03:43:10;;;;;;;94.32;35.22;;;;;;;;;;6222120;28;20041;-85
2021/12/11 03:46:10;;;;;;;72.35;32.15;;;;;;;;;;6231366;28;20026;-86
2021/12/11 03:49:13;;;;;;;66.88;29.63;;;;;;;;;;6220391;28;20449;-85
2021/12/11 03:52:14;;;;;;;99.45;37.90;;;;;;;;;;6224579;28;20553;-85
2021/12/11 03:55:18;;;;;;;65.63;27.57;;;;;;;;;;6222350;28;20021;-86
2021/12/11 03:58:19;;;;;;;64.25;24.55;;;;;;;;;;6228302;28;20363;-85
2021/12/11 04:01:24;;;;;;;68.30;29.52;;;;;;;;;;6231061;28;20025;-86
2021/12/11 04:04:29;;;;;;;68.18;27.63;;;;;;;;;;6225515;28;20029;-85
2021/12/11 04:07:32;;;;;;;90.40;37.20;;;;;;;;;;6224183;28;20055;-85
2021/12/11 04:10:32;;;;;;;95.75;37.83;;;;;;;;;;6220404;28;20025;-85
2021/12/11 04:13:33;;;;;;;89.90;37.10;;;;;;;;;;6240480;28;20314;-85
2021/12/11 04:16:33;;;;;;;73.40;32.53;;;;;;;;;;6220426;28;20025;-85
2021/12/11 04:19:34;;;;;;;88.85;34.38;;;;;;;;;;6243533;28;20104;-86
2021/12/11 04:22:34;;;;;;;91.18;36.92;;;;;;;;;;6223816;28;20029;-85
2021/12/11 04:25:34;;;;;;;92.57;37.05;;;;;;;;;;6224829;28;20021;-85
2021/12/11 04:28:37;;;;;;;81.55;38.92;;;;;;;;;;6224035;28;20022;-85
2021/12/11 04:31:41;;;;;;;104.03;38.78;;;;;;;;;;6224960;28;20025;-85
2021/12/11 04:34:42;;;;;;;95.07;38.67;;;;;;;;;;6223715;28;20389;-85
2021/12/11 04:37:43;;;;;;;112.10;48.85;;;;;;;;;;6235789;28;20045;-86
2021/12/11 04:40:47;;;;;;;89.57;36.15;;;;;;;;;;6220842;28;20386;-85
2021/12/11 04:43:48;;;;;;;91.63;40.70;;;;;;;;;;6238972;28;20562;-86
2021/12/11 04:46:49;;;;;;;96.15;38.97;;;;;;;;;;6223087;28;20033;-86
2021/12/11 04:49:56;;;;;;;97.75;38.95;;;;;;;;;;6218012;28;20413;-85
2021/12/11 04:52:58;;;;;;;83.80;38.53;;;;;;;;;;6228498;28;20050;-85
2021/12/11 04:56:56;;;;;;;;;;;;;;;;;;6243958;28;20075;-85
2021/12/11 05:15:44;;;;;;;71.75;28.85;;;;;;;;;;6218515;28;20470;-85
2021/12/11 05:18:45;;;;;;;135.90;52.05;;;;;;;;;;6219402;28;20018;-85
2021/12/11 05:21:46;;;;;;;115.50;44.65;;;;;;;;;;6223411;28;20022;-86
2021/12/11 05:24:48;;;;;;;137.25;47.50;;;;;;;;;;6242947;28;20021;-86
2021/12/11 05:27:48;;;;;;;110.07;44.70;;;;;;;;;;6220499;28;20493;-86
2021/12/11 05:30:51;;;;;;;104.50;39.78;;;;;;;;;;6219434;28;20013;-85
2021/12/11 05:33:51;;;;;;;114.47;45.50;;;;;;;;;;6230145;28;20109;-85
2021/12/11 05:36:52;;;;;;;99.38;37.03;;;;;;;;;;6241393;28;20025;-85
2021/12/11 05:39:52;;;;;;;114.55;39.92;;;;;;;;;;6247878;28;20029;-86
2021/12/11 05:42:53;;;;;;;128.20;42.70;;;;;;;;;;6245809;28;20469;-85
2021/12/11 05:45:54;;;;;;;116.45;42.83;;;;;;;;;;6239150;28;20377;-85
2021/12/11 05:48:54;;;;;;;123.35;42.13;;;;;;;;;;6227432;28;20363;-85
2021/12/11 05:51:55;;;;;;;105.53;41.95;;;;;;;;;;6223530;28;20080;-86
2021/12/11 05:54:55;;;;;;;117.35;44.83;;;;;;;;;;6244674;28;20021;-85
2021/12/11 05:57:57;;;;;;;102.68;36.83;;;;;;;;;;6247004;28;20188;-85
2021/12/11 06:00:58;;;;;;;114.32;41.78;;;;;;;;;;6245422;28;20025;-86
2021/12/11 06:04:00;;;;;;;102.22;38.10;;;;;;;;;;6245181;28;20032;-85
2021/12/11 06:07:00;;;;;;;95.15;39.05;;;;;;;;;;6247404;28;20075;-85
2021/12/11 06:10:05;;;;;;;105.57;39.10;;;;;;;;;;6244279;28;20433;-85
2021/12/11 06:13:05;;;;;;;113.43;41.88;;;;;;;;;;6221826;28;20022;-85
2021/12/11 06:16:06;;;;;;;98.82;41.05;;;;;;;;;;6230947;28;20036;-86
2021/12/11 06:19:06;;;;;;;101.80;40.30;;;;;;;;;;6229357;28;20508;-86
2021/12/11 06:22:07;;;;;;;120.57;45.15;;;;;;;;;;6245384;28;20022;-85
2021/12/11 06:25:09;;;;;;;99.07;37.13;;;;;;;;;;6245288;28;20021;-86
2021/12/11 06:28:09;;;;;;;92.72;38.22;;;;;;;;;;6244811;28;20521;-86
2021/12/11 06:31:17;;;;;;;83.53;36.08;;;;;;;;;;6246598;28;20028;-86
2021/12/11 06:34:18;;;;;;;90.50;37.17;;;;;;;;;;6244631;28;20036;-86
2021/12/11 06:37:21;;;;;;;83.70;36.00;;;;;;;;;;6238144;28;20385;-86
2021/12/11 06:40:21;;;;;;;87.35;36.97;;;;;;;;;;6244621;28;20155;-86
2021/12/11 06:43:22;;;;;;;89.28;32.85;;;;;;;;;;6245384;28;20018;-86
2021/12/11 06:46:23;;;;;;;89.43;36.90;;;;;;;;;;6243401;28;20673;-85
2021/12/11 06:49:24;;;;;;;85.57;34.65;;;;;;;;;;6246022;28;20013;-85
2021/12/11 06:52:24;;;;;;;87.70;34.67;;;;;;;;;;6245712;28;20038;-86
2021/12/11 06:55:25;;;;;;;82.00;34.65;;;;;;;;;;6246541;28;20382;-85
2021/12/11 06:58:26;;;;;;;83.60;35.05;;;;;;;;;;6246009;28;20385;-85
2021/12/11 07:01:28;;;;;;;71.32;30.88;;;;;;;;;;6246212;28;20457;-85
2021/12/11 07:04:28;;;;;;;76.85;33.35;;;;;;;;;;6244465;28;20616;-85
2021/12/11 07:07:33;;;;;;;70.13;31.20;;;;;;;;;;6245917;28;20029;-86
2021/12/11 07:10:33;;;;;;;60.05;27.80;;;;;;;;;;6245633;28;20025;-85
2021/12/11 07:13:34;;;;;;;66.90;30.63;;;;;;;;;;6245794;28;20025;-85
2021/12/11 07:16:34;;;;;;;70.65;32.92;;;;;;;;;;6241593;28;20022;-85
2021/12/11 07:19:34;;;;;;;63.05;29.13;;;;;;;;;;6232517;28;20026;-86
2021/12/11 07:22:36;;;;;;;65.68;28.20;;;;;;;;;;6228561;28;20101;-85
2021/12/11 07:26:03;;;;;;;70.75;29.17;;;;;;;;;;6223890;28;20025;-85
2021/12/11 07:29:08;;;;;;;75.95;31.52;;;;;;;;;;6229365;28;20042;-85
2021/12/11 07:32:09;;;;;;;65.20;32.33;;;;;;;;;;6228595;28;20237;-85
2021/12/11 07:35:09;;;;;;;57.22;26.88;;;;;;;;;;6235164;28;20046;-85
2021/12/11 07:38:10;;;;;;;73.30;32.60;;;;;;;;;;6231719;28;20547;-85
2021/12/11 07:41:11;;;;;;;76.47;31.40;;;;;;;;;;6230697;28;20022;-85
2021/12/11 07:44:12;;;;;;;65.32;30.38;;;;;;;;;;6224117;28;20024;-85
2021/12/11 07:47:12;;;;;;;77.40;34.25;;;;;;;;;;6232122;28;20508;-85
2021/12/11 07:50:13;;;;;;;84.22;35.80;;;;;;;;;;6242094;28;20736;-85
2021/12/11 07:53:13;;;;;;;75.63;35.30;;;;;;;;;;6236748;28;20041;-85
2021/12/11 07:56:14;;;;;;;87.13;40.42;;;;;;;;;;6225804;28;20485;-85
2021/12/11 07:59:14;;;;;;;84.00;39.13;;;;;;;;;;6231270;28;20478;-85
2021/12/11 08:02:15;;;;;;;83.13;36.75;;;;;;;;;;6226441;28;20022;-85
2021/12/11 08:05:15;;;;;;;80.20;32.40;;;;;;;;;;6231508;28;20113;-85
2021/12/11 08:08:16;;;;;;;63.50;31.55;;;;;;;;;;6234709;28;20394;-85
2021/12/11 08:11:17;;;;;;;64.50;32.55;;;;;;;;;;6233010;28;20013;-85
2021/12/11 08:14:18;;;;;;;64.90;32.70;;;;;;;;;;6228357;28;20223;-85
2021/12/11 08:17:19;;;;;;;67.07;31.10;;;;;;;;;;6228125;28;20027;-86
2021/12/11 08:20:27;;;;;;;77.80;33.20;;;;;;;;;;6227976;28;20025;-86
2021/12/11 08:23:28;;;;;;;73.78;34.55;;;;;;;;;;6226707;28;20738;-86
2021/12/11 08:26:28;;;;;;;69.85;31.33;;;;;;;;;;6242460;28;20033;-86
2021/12/11 08:29:28;;;;;;;78.28;36.13;;;;;;;;;;6243530;28;20667;-87
2021/12/11 08:32:29;;;;;;;81.22;35.67;;;;;;;;;;6244285;28;20009;-87
2021/12/11 08:35:29;;;;;;;72.28;33.92;;;;;;;;;;6243869;28;20438;-88
2021/12/11 08:38:30;;;;;;;66.07;30.85;;;;;;;;;;6244416;28;20482;-88
2021/12/11 08:41:30;;;;;;;78.75;39.40;;;;;;;;;;6243083;28;20104;-88
2021/12/11 08:44:35;;;;;;;77.47;36.00;;;;;;;;;;6242627;28;20481;-87
2021/12/11 08:47:39;;;;;;;75.40;33.05;;;;;;;;;;6242699;28;20022;-88
2021/12/11 08:50:39;;;;;;;69.47;34.33;;;;;;;;;;6235355;28;20497;-88
2021/12/11 08:53:39;;;;;;;70.60;34.13;;;;;;;;;;6221108;28;20026;-88
2021/12/11 08:56:41;;;;;;;59.08;29.95;;;;;;;;;;6235823;28;20104;-88
2021/12/11 08:59:43;;;;;;;64.28;31.55;;;;;;;;;;6219804;28;20053;-88
2021/12/11 09:02:46;;;;;;;67.72;30.63;;;;;;;;;;6219676;28;20060;-88
2021/12/11 09:05:52;;;;;;;67.82;31.88;;;;;;;;;;6220460;28;20026;-87
2021/12/11 09:08:52;;;;;;;70.22;32.05;;;;;;;;;;6225573;28;20014;-87
2021/12/11 09:11:58;;;;;;;65.50;31.38;;;;;;;;;;6223936;28;20064;-87
2021/12/11 09:15:12;;;;;;;70.60;30.73;;;;;;;;;;6225727;28;20025;-87
2021/12/11 09:18:14;;;;;;;67.72;31.27;;;;;;;;;;6239553;28;20056;-87
2021/12/11 09:21:23;;;;;;;64.78;30.00;;;;;;;;;;6249410;28;20025;-87
2021/12/11 09:24:26;;;;;;;62.85;31.58;;;;;;;;;;6248079;28;20486;-87
2021/12/11 09:27:29;;;;;;;77.78;35.40;;;;;;;;;;6224674;28;20029;-87
2021/12/11 09:30:36;;;;;;;61.40;32.80;;;;;;;;;;6226499;28;20017;-86
2021/12/11 09:33:39;;;;;;;72.55;36.67;;;;;;;;;;6247413;28;20021;-86
2021/12/11 09:36:41;;;;;;;83.15;38.22;;;;;;;;;;6241251;28;20075;-87
2021/12/11 09:39:46;;;;;;;82.93;41.70;;;;;;;;;;6246931;28;20028;-86
2021/12/11 09:42:46;;;;;;;72.63;32.80;;;;;;;;;;6249132;28;20018;-87
2021/12/11 09:45:47;;;;;;;75.75;37.97;;;;;;;;;;6247236;28;20107;-87
2021/12/11 09:48:48;;;;;;;81.05;36.65;;;;;;;;;;6248291;28;20191;-87
2021/12/11 09:51:50;;;;;;;77.32;36.70;;;;;;;;;;6245175;28;20037;-86
2021/12/11 09:54:50;;;;;;;;;;;;;;;;;;6245470;28;20389;-87
2021/12/11 09:57:56;;;;;;;79.15;36.88;;;;;;;;;;6245185;28;19929;-87
2021/12/11 10:01:03;;;;;;;75.55;37.08;;;;;;;;;;6246267;28;20025;-88
2021/12/11 10:04:06;;;;;;;75.90;38.72;;;;;;;;;;6247031;28;20045;-87
2021/12/11 10:10:19;;;;;;;72.03;38.30;;;;;;;;;;6248349;28;20040;-87
2021/12/11 10:13:20;;;;;;;101.95;46.22;;;;;;;;;;6247951;28;20025;-87
2021/12/11 10:16:24;;;;;;;69.30;35.20;;;;;;;;;;6246745;28;20437;-87
2021/12/11 10:19:29;;;;;;;64.93;32.75;;;;;;;;;;6241866;28;20038;-88
2021/12/11 10:22:32;;;;;;;66.50;31.83;;;;;;;;;;6228639;28;20030;-87
2021/12/11 10:25:33;;;;;;;70.47;38.92;;;;;;;;;;6247576;28;20021;-87
2021/12/11 10:28:34;;;;;;;69.43;38.88;;;;;;;;;;6247800;28;20032;-87
2021/12/11 10:31:50;;;;;;;72.55;36.78;;;;;;;;;;6245942;28;20029;-87
2021/12/11 10:34:53;;;;;;;64.75;32.20;;;;;;;;;;6246997;28;20108;-87
2021/12/11 10:37:54;;;;;;;76.88;37.10;;;;;;;;;;6246934;28;20021;-87
2021/12/11 10:40:56;;;;;;;81.60;38.65;;;;;;;;;;6266435;28;20063;-87
2021/12/11 10:44:00;;;;;;;85.70;41.55;;;;;;;;;;6268042;28;20021;-87
2021/12/11 10:47:04;;;;;;;69.30;34.97;;;;;;;;;;6246660;28;20482;-86
2021/12/11 10:50:06;;;;;;;78.15;39.88;;;;;;;;;;6245046;28;20061;-86
2021/12/11 10:53:08;;;;;;;69.68;37.42;;;;;;;;;;6245045;28;20140;-87
2021/12/11 10:56:08;;;;;;;103.13;48.33;;;;;;;;;;6246295;28;20393;-87
2021/12/11 10:59:11;;;;;;;107.45;52.67;;;;;;;;;;6245385;28;20021;-86
2021/12/11 11:02:13;;;;;;;110.43;50.33;;;;;;;;;;6245330;28;20022;-87
2021/12/11 11:05:14;;;;;;;;;;;;;;;;;;6246013;28;20026;-86
2021/12/11 11:08:15;;;;;;;110.78;52.63;;;;;;;;;;6246294;28;19949;-87
2021/12/11 11:11:18;;;;;;;109.28;49.45;;;;;;;;;;6246184;28;20474;-87
2021/12/11 11:14:18;;;;;;;94.35;44.90;;;;;;;;;;6246192;28;20019;-87
2021/12/11 11:17:20;;;;;;;90.03;48.65;;;;;;;;;;6246319;28;20010;-87
2021/12/11 11:20:26;;;;;;;87.27;43.43;;;;;;;;;;6244095;28;20017;-87
2021/12/11 11:23:26;;;;;;;104.10;55.80;;;;;;;;;;6246218;28;20018;-87
2021/12/11 11:26:28;;;;;;;173.23;85.93;;;;;;;;;;6244864;28;20052;-87
2021/12/11 11:29:30;;;;;;;128.02;66.88;;;;;;;;;;6245044;28;20363;-87
2021/12/11 11:32:33;;;;;;;97.68;49.72;;;;;;;;;;6244467;28;20087;-88
2021/12/11 11:35:38;;;;;;;103.28;53.55;;;;;;;;;;6245842;28;20492;-87
2021/12/11 11:38:41;;;;;;;105.63;53.08;;;;;;;;;;6244687;28;20017;-87
2021/12/11 11:41:47;;;;;;;114.07;58.85;;;;;;;;;;6246142;28;20096;-87
2021/12/11 11:44:48;;;;;;;121.38;59.75;;;;;;;;;;6243811;28;20018;-87
2021/12/11 11:47:48;;;;;;;131.07;61.50;;;;;;;;;;6244048;28;20032;-87
2021/12/11 11:50:50;;;;;;;122.65;66.05;;;;;;;;;;6243989;28;20531;-87
2021/12/11 11:53:50;;;;;;;134.93;66.60;;;;;;;;;;6244570;28;20040;-87
2021/12/11 11:56:53;;;;;;;126.22;63.85;;;;;;;;;;6231058;28;20030;-87
2021/12/11 11:59:55;;;;;;;116.25;56.25;;;;;;;;;;6221021;28;20367;-87
2021/12/11 12:02:56;;;;;;;122.63;56.13;;;;;;;;;;6219379;28;20025;-87
2021/12/11 12:05:59;;;;;;;122.22;56.30;;;;;;;;;;6221452;28;20371;-87
2021/12/11 12:09:02;;;;;;;124.32;58.08;;;;;;;;;;6245366;28;20505;-87
2021/12/11 12:12:04;;;;;;;112.22;55.65;;;;;;;;;;6243569;28;20377;-87
2021/12/11 12:15:05;;;;;;;113.40;57.13;;;;;;;;;;6244831;28;20030;-87
2021/12/11 12:18:05;;;;;;;116.93;56.13;;;;;;;;;;6243590;28;20026;-87
2021/12/11 12:21:06;;;;;;;112.70;60.17;;;;;;;;;;6244982;28;20028;-87
2021/12/11 12:24:06;;;;;;;124.43;65.03;;;;;;;;;;6245367;28;20017;-87
2021/12/11 12:27:08;;;;;;;116.28;59.88;;;;;;;;;;6244728;28;20083;-87
2021/12/11 12:30:22;;;;;;;113.57;57.13;;;;;;;;;;6244501;28;20048;-87
2021/12/11 12:33:23;;;;;;;112.30;56.67;;;;;;;;;;6245278;28;20080;-87
2021/12/11 12:36:25;;;;;;;122.90;58.67;;;;;;;;;;6243509;28;20030;-87
2021/12/11 12:39:36;;;;;;;128.70;68.35;;;;;;;;;;6242585;28;20045;-87
2021/12/11 12:42:40;;;;;;;121.32;58.30;;;;;;;;;;6244108;28;20017;-87
2021/12/11 12:45:43;;;;;;;128.73;68.30;;;;;;;;;;6243925;28;20021;-87
2021/12/11 12:48:43;;;;;;;126.70;64.78;;;;;;;;;;6242910;28;20125;-87
2021/12/11 12:51:46;;;;;;;109.93;58.55;;;;;;;;;;6242682;28;20482;-88
2021/12/11 12:54:47;;;;;;;121.38;63.08;;;;;;;;;;6242538;28;20104;-87
2021/12/11 12:57:49;;;;;;;126.43;64.65;;;;;;;;;;6221670;28;20071;-87
2021/12/11 13:00:52;;;;;;;122.38;66.40;;;;;;;;;;6217834;28;20026;-87
2021/12/11 13:03:54;;;;;;;112.50;53.85;;;;;;;;;;6217854;28;20478;-87
2021/12/11 13:06:56;;;;;;;122.78;68.88;;;;;;;;;;6219838;28;20429;-87
2021/12/11 13:09:56;;;;;;;;;;;;;;;;;;6219014;28;20022;-87
2021/12/11 13:12:57;;;;;;;114.43;55.08;;;;;;;;;;6219907;28;19917;-86
2021/12/11 13:16:03;;;;;;;124.88;66.28;;;;;;;;;;6237478;28;20025;-86
2021/12/11 13:19:33;;;;;;;114.38;57.85;;;;;;;;;;6243174;28;20022;-87
2021/12/11 13:22:36;;;;;;;126.63;61.90;;;;;;;;;;6234813;28;20057;-87
2021/12/11 13:25:41;;;;;;;110.55;57.67;;;;;;;;;;6221521;28;20029;-87
2021/12/11 13:28:44;;;;;;;105.18;52.22;;;;;;;;;;6218785;28;20022;-86
2021/12/11 13:31:54;;;;;;;106.53;54.08;;;;;;;;;;6225714;28;20428;-86
2021/12/11 13:34:57;;;;;;;111.97;55.67;;;;;;;;;;6218363;28;20029;-88
2021/12/11 13:37:58;;;;;;;121.50;63.60;;;;;;;;;;6219355;28;20026;-87
2021/12/11 13:41:01;;;;;;;128.23;57.17;;;;;;;;;;6238745;28;20052;-87
2021/12/11 13:44:01;;;;;;;117.18;58.13;;;;;;;;;;6229979;28;20037;-87
2021/12/11 13:47:05;;;;;;;124.75;61.40;;;;;;;;;;6223621;28;20017;-87
2021/12/11 13:50:11;;;;;;;117.00;60.95;;;;;;;;;;6221304;28;20030;-87
2021/12/11 13:53:11;;;;;;;131.60;65.43;;;;;;;;;;6250221;28;20045;-87
2021/12/11 13:56:13;;;;;;;151.13;80.25;;;;;;;;;;6232676;28;20009;-87
2021/12/11 13:59:14;;;;;;;155.55;77.82;;;;;;;;;;6241485;28;20022;-87
2021/12/11 14:02:17;;;;;;;140.70;80.33;;;;;;;;;;6246301;28;20025;-87
2021/12/11 14:05:17;;;;;;;145.15;78.45;;;;;;;;;;6232951;28;20032;-87
2021/12/11 14:08:21;;;;;;;142.68;74.63;;;;;;;;;;6243878;28;20264;-87
2021/12/11 14:11:21;;;;;;;147.07;76.70;;;;;;;;;;6244160;28;20076;-87
2021/12/11 14:14:22;;;;;;;141.35;72.38;;;;;;;;;;6244055;28;20018;-87
2021/12/11 14:17:22;;;;;;;150.30;75.55;;;;;;;;;;6246104;28;20029;-87
2021/12/11 14:20:26;;;;;;;136.95;72.97;;;;;;;;;;6243161;28;20036;-87
2021/12/11 14:23:29;;;;;;;146.35;75.15;;;;;;;;;;6240464;28;20298;-87
2021/12/11 14:26:30;;;;;;;151.70;75.93;;;;;;;;;;6222714;28;20481;-87
2021/12/11 14:29:31;;;;;;;154.35;78.85;;;;;;;;;;6225534;28;20021;-88
2021/12/11 14:32:32;;;;;;;152.48;74.53;;;;;;;;;;6230516;28;20076;-88
2021/12/11 14:35:33;;;;;;;111.47;62.80;;;;;;;;;;6235034;28;20112;-88
2021/12/11 14:38:34;;;;;;;157.98;81.03;;;;;;;;;;6234403;28;20022;-87
2021/12/11 14:41:35;;;;;;;146.23;79.03;;;;;;;;;;6239144;28;20067;-87
2021/12/11 14:44:36;;;;;;;163.70;85.90;;;;;;;;;;6231533;28;20768;-88
2021/12/11 14:47:36;;;;;;;152.98;77.00;;;;;;;;;;6236220;28;20018;-87
2021/12/11 14:50:38;;;;;;;152.95;76.22;;;;;;;;;;6240038;28;20095;-87
2021/12/11 14:53:40;;;;;;;165.95;83.03;;;;;;;;;;6233728;28;20029;-88
2021/12/11 14:56:44;;;;;;;119.50;67.82;;;;;;;;;;6232157;28;20029;-88
2021/12/11 14:59:46;;;;;;;156.18;79.35;;;;;;;;;;6228691;28;20553;-87
2021/12/11 15:02:49;;;;;;;149.90;80.28;;;;;;;;;;6225378;28;20021;-88
2021/12/11 15:05:49;;;;;;;154.13;79.80;;;;;;;;;;6229651;28;20065;-88
2021/12/11 15:08:51;;;;;;;211.43;108.78;;;;;;;;;;6229916;28;20019;-88
2021/12/11 15:11:52;;;;;;;269.23;123.83;;;;;;;;;;6244578;28;20533;-87
2021/12/11 15:14:52;;;;;;;236.70;113.47;;;;;;;;;;6228986;28;20271;-88
2021/12/11 15:17:55;;;;;;;214.43;108.57;;;;;;;;;;6227452;28;20474;-87
2021/12/11 15:20:57;;;;;;;214.15;106.00;;;;;;;;;;6230027;28;20560;-88
2021/12/11 15:24:00;;;;;;;282.10;143.07;;;;;;;;;;6229603;28;20064;-87
2021/12/11 15:27:01;;;;;;;216.10;107.20;;;;;;;;;;6232551;28;20060;-90
2021/12/11 15:30:05;;;;;;;257.60;139.75;;;;;;;;;;6243853;28;20462;-90
2021/12/11 15:33:06;;;;;;;240.23;122.68;;;;;;;;;;6246488;28;20389;-90
2021/12/11 15:36:07;;;;;;;203.32;100.18;;;;;;;;;;6243589;28;20020;-90
2021/12/11 15:39:11;;;;;;;243.63;116.82;;;;;;;;;;6246437;28;20022;-90
2021/12/11 15:42:12;;;;;;;247.60;122.13;;;;;;;;;;6229119;28;20109;-90
2021/12/11 15:45:13;;;;;;;273.40;136.27;;;;;;;;;;6239153;28;20028;-90
2021/12/11 15:48:14;;;;;;;250.00;126.60;;;;;;;;;;6243587;28;20029;-90
2021/12/11 15:51:16;;;;;;;284.98;145.43;;;;;;;;;;6247156;28;20464;-90
2021/12/11 15:54:16;;;;;;;217.80;114.40;;;;;;;;;;6246735;28;20069;-90
2021/12/11 15:57:17;;;;;;;204.80;109.15;;;;;;;;;;6229690;28;20079;-90
2021/12/11 16:00:28;;;;;;;205.77;111.88;;;;;;;;;;6220789;28;20026;-90
2021/12/11 16:03:29;;;;;;;159.85;78.47;;;;;;;;;;6220052;28;20034;-90
2021/12/11 16:06:30;;;;;;;160.40;72.80;;;;;;;;;;6219821;28;20022;-90
2021/12/11 16:09:30;;;;;;;168.38;78.90;;;;;;;;;;6220262;28;20029;-90
2021/12/11 16:12:31;;;;;;;166.65;73.75;;;;;;;;;;6220144;28;20014;-90
2021/12/11 16:15:36;;;;;;;177.65;82.38;;;;;;;;;;6234847;28;20067;-90
2021/12/11 16:18:37;;;;;;;209.00;100.88;;;;;;;;;;6243853;28;20021;-90
2021/12/11 16:21:40;;;;;;;288.42;134.63;;;;;;;;;;6243459;28;20103;-90
2021/12/11 16:24:41;;;;;;;273.23;131.35;;;;;;;;;;6230577;28;20025;-90
2021/12/11 16:27:42;;;;;;;270.17;123.03;;;;;;;;;;6237833;28;20017;-90
2021/12/11 16:30:45;;;;;;;249.70;123.68;;;;;;;;;;6243208;28;20446;-90
2021/12/11 16:33:46;;;;;;;201.63;100.35;;;;;;;;;;6243024;28;20022;-90
2021/12/11 16:36:49;;;;;;;180.27;97.40;;;;;;;;;;6223706;28;20022;-90
2021/12/11 16:39:49;;;;;;;206.70;116.28;;;;;;;;;;6234200;28;20029;-90
2021/12/11 16:43:01;;;;;;;214.70;108.88;;;;;;;;;;6239311;28;20021;-91
2021/12/11 16:46:01;;;;;;;;;;;;;;;;;;6227140;28;20048;-90
2021/12/11 16:49:04;;;;;;;119.10;63.10;;;;;;;;;;6240614;28;20341;-90
2021/12/11 16:52:06;;;;;;;113.18;57.72;;;;;;;;;;6241660;28;20136;-90
2021/12/11 16:55:07;;;;;;;124.45;62.45;;;;;;;;;;6241092;28;20032;-90
2021/12/11 16:58:08;;;;;;;100.22;55.78;;;;;;;;;;6238007;28;20021;-90
2021/12/11 17:01:12;;;;;;;112.28;54.42;;;;;;;;;;6232219;28;20030;-90
2021/12/11 17:04:13;;;;;;;119.25;59.92;;;;;;;;;;6234366;28;20017;-90
2021/12/11 17:07:13;;;;;;;110.80;57.55;;;;;;;;;;6228532;28;20072;-91
2021/12/11 17:10:16;;;;;;;109.75;58.85;;;;;;;;;;6235505;28;20040;-91
2021/12/11 17:13:19;;;;;;;102.68;52.00;;;;;;;;;;6231157;28;20233;-91
2021/12/11 17:16:19;;;;;;;108.60;53.40;;;;;;;;;;6236251;28;20018;-91
2021/12/11 17:19:20;;;;;;;107.53;54.33;;;;;;;;;;6234278;28;20029;-91
2021/12/11 17:22:20;;;;;;;107.05;54.28;;;;;;;;;;6231646;28;20036;-91
2021/12/11 17:25:25;;;;;;;109.47;52.92;;;;;;;;;;6234379;28;20116;-91
2021/12/11 17:28:30;;;;;;;119.78;60.58;;;;;;;;;;6227644;28;20101;-91
2021/12/11 17:31:31;;;;;;;101.30;54.78;;;;;;;;;;6230784;28;20014;-91
2021/12/11 17:34:32;;;;;;;113.72;55.85;;;;;;;;;;6238032;28;21275;-91
2021/12/11 17:37:33;;;;;;;151.05;76.72;;;;;;;;;;6234628;28;20052;-91
2021/12/11 17:40:33;;;;;;;171.40;85.35;;;;;;;;;;6242075;28;20021;-91
2021/12/11 17:43:34;;;;;;;183.52;90.53;;;;;;;;;;6242309;28;20021;-91
2021/12/11 17:46:35;;;;;;;181.05;89.10;;;;;;;;;;6242100;28;20414;-91
2021/12/11 17:49:36;;;;;;;137.30;65.97;;;;;;;;;;6241753;28;20024;-91
2021/12/11 17:52:36;;;;;;;151.63;75.70;;;;;;;;;;6237918;28;20042;-91
2021/12/11 17:55:43;;;;;;;157.30;73.85;;;;;;;;;;6241088;28;20017;-92
2021/12/11 17:58:45;;;;;;;150.02;71.90;;;;;;;;;;6246253;28;20524;-91